FranceFixed distance
Maratrail du Saint-Jacques by UTMB
16 Jun2024
Distance
51km
Finishers
1,5781,290 men288 women
Winning time
4:10:07h
Median pace
6.71km/h
Pace distribution
1,578 finishers · 4.32–12.23 km/h · mean 6.91
Every finisher ran the same 51 km course, so these paces are directly comparable.
Histogram of finisher pace. 1,578 finishers ranged from 4.32 to 12.23 kilometres per hour, with a mean of 6.91 and a median of 6.71. The busiest band is 6.0 to 6.5 kilometres per hour, with 272 finishers.
Results
Ranks 1,351–1,400 of 1,578
| Rank | Runner | Time | Pace | Cat. | Placing |
|---|---|---|---|---|---|
| 1351 | 9:08:51h | 5.58 | M23 | 1129th M · 524th M23 | |
| 1352 | 9:08:52h | 5.58 | M23 | 1130th M · 525th M23 | |
| 1353 | 9:08:57h | 5.57 | W35 | 223rd F · 39th W35 | |
| 1354 | 9:09:28h | 5.57 | W40 | 224th F · 32nd W40 | |
| 1355 | 9:09:37h | 5.57 | M23 | 1131st M · 526th M23 | |
| 1356 | Aseat | 9:10:36h | 5.56 | M60 | 1132nd M · 14th M60 |
| 1357 | 9:10:39h | 5.56 | M70 | 1133rd M · 4th M70 | |
| 1358 | les 2 Alpes Trail | 9:10:42h | 5.56 | M35 | 1134th M · 167th M35 |
| 1359 | 9:11:07h | 5.55 | M45 | 1135th M · 124th M45 | |
| 1360 | 9:11:32h | 5.55 | W23 | 225th F · 110th W23 | |
| 1361 | Trailers du PIC Saint ... | 9:11:38h | 5.55 | W50 | 226th F · 8th W50 |
| 1362 | 9:12:52h | 5.54 | M50 | 1136th M · 77th M50 | |
| 1363 | les Poussins | 9:13:32h | 5.53 | M35 | 1137th M · 168th M35 |
| 1364 | 9:13:37h | 5.53 | W23 | 227th F · 111th W23 | |
| 1365 | 9:13:45h | 5.53 | W35 | 228th F · 40th W35 | |
| 1366 | 9:14:06h | 5.52 | M23 | 1138th M · 527th M23 | |
| 1367 | 9:14:56h | 5.51 | M50 | 1139th M · 78th M50 | |
| 1368 | 9:15:15h | 5.51 | W23 | 229th F · 112th W23 | |
| 1369 | 9:15:23h | 5.51 | M40 | 1140th M · 140th M40 | |
| 1369 | 9:15:23h | 5.51 | M40 | 1140th M · 140th M40 | |
| 1369 | 9:15:23h | 5.51 | M40 | 1140th M · 140th M40 | |
| 1372 | 9:15:24h | 5.51 | M55 | 1143rd M · 37th M55 | |
| 1372 | 9:15:24h | 5.51 | M40 | 1143rd M · 143rd M40 | |
| 1374 | 9:15:32h | 5.51 | MU23 | 1145th M · 48th MU23 | |
| 1375 | 9:15:37h | 5.51 | W40 | 230th F · 33rd W40 | |
| 1376 | Athletique CUR de Fond | 9:15:38h | 5.51 | W23 | 231st F · 113th W23 |
| 1377 | LA Dent QUI Bouge | 9:15:39h | 5.51 | M35 | 1146th M · 169th M35 |
| 1378 | all Jura Trail | 9:16:02h | 5.50 | M55 | 1147th M · 38th M55 |
| 1379 | Kinetic Sports | 9:16:06h | 5.50 | W35 | 232nd F · 41st W35 |
| 1380 | 9:16:36h | 5.50 | W35 | 233rd F · 42nd W35 | |
| 1381 | 9:16:45h | 5.50 | W35 | 234th F · 43rd W35 | |
| 1382 | 9:16:48h | 5.50 | M35 | 1148th M · 170th M35 | |
| 1383 | CTA Saint CYR SUR MER | 9:17:06h | 5.49 | M45 | 1149th M · 125th M45 |
| 1384 | Vaux LE Penil Athletisme | 9:17:07h | 5.49 | W50 | 235th F · 9th W50 |
| 1385 | 9:17:17h | 5.49 | M23 | 1150th M · 528th M23 | |
| 1385 | 9:17:17h | 5.49 | M45 | 1150th M · 126th M45 | |
| 1387 | 9:17:33h | 5.49 | W23 | 236th F · 114th W23 | |
| 1387 | 9:17:33h | 5.49 | M23 | 1152nd M · 529th M23 | |
| 1389 | 9:17:49h | 5.49 | W40 | 237th F · 34th W40 | |
| 1390 | 9:19:07h | 5.47 | M55 | 1153rd M · 39th M55 | |
| 1391 | 9:19:32h | 5.47 | M55 | 1154th M · 40th M55 | |
| 1392 | 9:19:40h | 5.47 | M40 | 1155th M · 144th M40 | |
| 1393 | Team S.BRO | 9:19:54h | 5.46 | M50 | 1156th M · 79th M50 |
| 1394 | Velay Athletisme | 9:20:20h | 5.46 | W50 | 238th F · 10th W50 |
| 1395 | 9:20:29h | 5.46 | W45 | 239th F · 21st W45 | |
| 1396 | LA Rasante | 9:21:07h | 5.45 | M60 | 1157th M · 15th M60 |
| 1397 | Team B | 9:21:22h | 5.45 | M60 | 1158th M · 16th M60 |
| 1398 | 9:21:47h | 5.45 | M60 | 1159th M · 17th M60 | |
| 1399 | 9:22:05h | 5.44 | M35 | 1160th M · 171st M35 | |
| 1400 | 9:22:33h | 5.44 | M23 | 1161st M · 530th M23 |
- 13511129th M · 524th M23Time9:08:51hPace5.58Cat.M23
- 13521130th M · 525th M23Time9:08:52hPace5.58Cat.M23
- 1353223rd F · 39th W35Time9:08:57hPace5.57Cat.W35
- 1354224th F · 32nd W40Time9:09:28hPace5.57Cat.W40
- 13551131st M · 526th M23Time9:09:37hPace5.57Cat.M23
- 1356Aseat1132nd M · 14th M60Time9:10:36hPace5.56Cat.M60
- 13571133rd M · 4th M70Time9:10:39hPace5.56Cat.M70
- 1358les 2 Alpes Trail1134th M · 167th M35Time9:10:42hPace5.56Cat.M35
- 13591135th M · 124th M45Time9:11:07hPace5.55Cat.M45
- 1360225th F · 110th W23Time9:11:32hPace5.55Cat.W23
- 1361Trailers du PIC Saint ...226th F · 8th W50Time9:11:38hPace5.55Cat.W50
- 13621136th M · 77th M50Time9:12:52hPace5.54Cat.M50
- 1363les Poussins1137th M · 168th M35Time9:13:32hPace5.53Cat.M35
- 1364227th F · 111th W23Time9:13:37hPace5.53Cat.W23
- 1365228th F · 40th W35Time9:13:45hPace5.53Cat.W35
- 13661138th M · 527th M23Time9:14:06hPace5.52Cat.M23
- 13671139th M · 78th M50Time9:14:56hPace5.51Cat.M50
- 1368229th F · 112th W23Time9:15:15hPace5.51Cat.W23
- 13691140th M · 140th M40Time9:15:23hPace5.51Cat.M40
- 13691140th M · 140th M40Time9:15:23hPace5.51Cat.M40
- 13691140th M · 140th M40Time9:15:23hPace5.51Cat.M40
- 13721143rd M · 37th M55Time9:15:24hPace5.51Cat.M55
- 13721143rd M · 143rd M40Time9:15:24hPace5.51Cat.M40
- 13741145th M · 48th MU23Time9:15:32hPace5.51Cat.MU23
- 1375230th F · 33rd W40Time9:15:37hPace5.51Cat.W40
- 1376Athletique CUR de Fond231st F · 113th W23Time9:15:38hPace5.51Cat.W23
- 1377LA Dent QUI Bouge1146th M · 169th M35Time9:15:39hPace5.51Cat.M35
- 1378all Jura Trail1147th M · 38th M55Time9:16:02hPace5.50Cat.M55
- 1379Kinetic Sports232nd F · 41st W35Time9:16:06hPace5.50Cat.W35
- 1380233rd F · 42nd W35Time9:16:36hPace5.50Cat.W35
- 1381234th F · 43rd W35Time9:16:45hPace5.50Cat.W35
- 13821148th M · 170th M35Time9:16:48hPace5.50Cat.M35
- 1383CTA Saint CYR SUR MER1149th M · 125th M45Time9:17:06hPace5.49Cat.M45
- 1384Vaux LE Penil Athletisme235th F · 9th W50Time9:17:07hPace5.49Cat.W50
- 13851150th M · 528th M23Time9:17:17hPace5.49Cat.M23
- 13851150th M · 126th M45Time9:17:17hPace5.49Cat.M45
- 1387236th F · 114th W23Time9:17:33hPace5.49Cat.W23
- 13871152nd M · 529th M23Time9:17:33hPace5.49Cat.M23
- 1389237th F · 34th W40Time9:17:49hPace5.49Cat.W40
- 13901153rd M · 39th M55Time9:19:07hPace5.47Cat.M55
- 13911154th M · 40th M55Time9:19:32hPace5.47Cat.M55
- 13921155th M · 144th M40Time9:19:40hPace5.47Cat.M40
- 1393Team S.BRO1156th M · 79th M50Time9:19:54hPace5.46Cat.M50
- 1394Velay Athletisme238th F · 10th W50Time9:20:20hPace5.46Cat.W50
- 1395239th F · 21st W45Time9:20:29hPace5.46Cat.W45
- 1396LA Rasante1157th M · 15th M60Time9:21:07hPace5.45Cat.M60
- 1397Team B1158th M · 16th M60Time9:21:22hPace5.45Cat.M60
- 13981159th M · 17th M60Time9:21:47hPace5.45Cat.M60
- 13991160th M · 171st M35Time9:22:05hPace5.44Cat.M35
- 14001161st M · 530th M23Time9:22:33hPace5.44Cat.M23
Showing ranks 1,351–1,400 of 1,578